Challenge Pollux — 9V5639 — position and weather

sailwx.info

Track history (hours):
 
Tides and Currents Weather Stations Pressure Air Temp Water Temp Dewpoint Dewpoint Depression Visibility Wind Speed Wind Dir Waves Ship Positions

Challenge Pollux

Last reported at 2018-Apr-20 13:34 UTC. Time now 2018-Apr-24 14:45 UTC.
Position N 29°08' W 094°26'.

Length 183 m; draft 12.1 m.

Type: Tanker. MMSI: 563032400.

Date/timePositionNaut miles runAvg speedWind from/ knotsBaromVisibWave heightAir tempDewpointWater temp
2018-Apr-20 13:34N 29°08' W 094°26'211.8
2018-Apr-20 13:22N 29°09' W 094°28'511.8
2018-Apr-20 12:59N 29°12' W 094°32'611.3
2018-Apr-20 12:29N 29°17' W 094°36'610.7
2018-Apr-20 11:54N 29°20' W 094°41'4 9.3
2018-Apr-20 11:26N 29°21' W 094°46'4 9.7
2018-Apr-20 10:59N 29°24' W 094°49'510.6
2018-Apr-20 10:30N 29°29' W 094°52'510.8
2018-Apr-20 10:00N 29°33' W 094°55'510.2
2018-Apr-20 09:30N 29°38' W 094°58'5 9.1
2018-Apr-20 09:01N 29°42' W 095°00'4 7.4
2018-Apr-20 08:30N 29°44' W 095°03'2 0.0
2018-Apr-18 10:24N 29°45' W 095°06'1 2.2
2018-Apr-18 10:00N 29°46' W 095°05'3 6.8
2018-Apr-18 09:31N 29°44' W 095°02'4 7.5
2018-Apr-18 09:00N 29°41' W 094°59'510.4
2018-Apr-18 08:30N 29°36' W 094°57'611.5
2018-Apr-18 08:00N 29°31' W 094°53'611.7
2018-Apr-18 07:31N 29°26' W 094°50'611.9
2018-Apr-18 07:00N 29°21' W 094°47'611.4
2018-Apr-18 06:30N 29°20' W 094°41'1712.0
2018-Apr-18 05:03N 29°09' W 094°25'113.1
2018-Apr-18 04:59N 29°09' W 094°25'613.5
2018-Apr-18 04:30N 29°06' W 094°32'3 4.7
2018-Apr-18 03:50N 29°05' W 094°35'0 0.0
2018-Apr-18 03:29N 29°05' W 094°35'0 0.0
2018-Apr-18 02:59N 29°05' W 094°35'0 0.0
2018-Apr-18 02:20N 29°05' W 094°35'0 0.0
2018-Apr-18 00:29N 29°05' W 094°35'0 0.0
2018-Apr-17 23:59N 29°05' W 094°35'0 0.0
2018-Apr-17 22:05N 29°05' W 094°35'0 0.4
2018-Apr-17 21:52N 29°05' W 094°35'1 2.1
2018-Apr-17 21:28N 29°05' W 094°34'3 6.2
2018-Apr-17 21:00N 29°05' W 094°31'5 9.9
2018-Apr-17 20:30N 29°03' W 094°26'612.8
2018-Apr-17 20:00N 28°57' W 094°24'713.8
2018-Apr-17 19:30N 28°50' W 094°24'713.9
2018-Apr-17 19:00N 28°43' W 094°24'1214.0
2018-Apr-17 18:07N 28°31' W 094°24'514.1
2018-Apr-17 17:45N 28°25' W 094°24'614.1
2018-Apr-17 17:20N 28°19' W 094°25'  
2018-Apr-14 05:07N 26°06' W 079°27'411.3
2018-Apr-14 04:47N 26°09' W 079°28'310.8
2018-Apr-14 04:30N 26°12' W 079°28'  
Track history (hours):
 
Tides and Currents Weather Stations Pressure Air Temp Water Temp Dewpoint Dewpoint Depression Visibility Wind Speed Wind Dir Waves Ship Positions

Challenge Pollux

Last reported at 2018-Apr-20 13:34 UTC. Time now 2018-Apr-24 14:45 UTC.
Position N 29°08' W 094°26'.

Length 183 m; draft 12.1 m.

Type: Tanker. MMSI: 563032400.

Date/timePositionNaut miles runAvg speedWind from/ knotsBaromVisibWave heightAir tempDewpointWater temp
2018-Apr-20 13:34N 29°08' W 094°26'211.8
2018-Apr-20 13:22N 29°09' W 094°28'511.8
2018-Apr-20 12:59N 29°12' W 094°32'611.3
2018-Apr-20 12:29N 29°17' W 094°36'610.7
2018-Apr-20 11:54N 29°20' W 094°41'4 9.3
2018-Apr-20 11:26N 29°21' W 094°46'4 9.7
2018-Apr-20 10:59N 29°24' W 094°49'510.6
2018-Apr-20 10:30N 29°29' W 094°52'510.8
2018-Apr-20 10:00N 29°33' W 094°55'510.2
2018-Apr-20 09:30N 29°38' W 094°58'5 9.1
2018-Apr-20 09:01N 29°42' W 095°00'4 7.4
2018-Apr-20 08:30N 29°44' W 095°03'2 0.0
2018-Apr-18 10:24N 29°45' W 095°06'1 2.2
2018-Apr-18 10:00N 29°46' W 095°05'3 6.8
2018-Apr-18 09:31N 29°44' W 095°02'4 7.5
2018-Apr-18 09:00N 29°41' W 094°59'510.4
2018-Apr-18 08:30N 29°36' W 094°57'611.5
2018-Apr-18 08:00N 29°31' W 094°53'611.7
2018-Apr-18 07:31N 29°26' W 094°50'611.9
2018-Apr-18 07:00N 29°21' W 094°47'611.4
2018-Apr-18 06:30N 29°20' W 094°41'1712.0
2018-Apr-18 05:03N 29°09' W 094°25'113.1
2018-Apr-18 04:59N 29°09' W 094°25'613.5
2018-Apr-18 04:30N 29°06' W 094°32'3 4.7
2018-Apr-18 03:50N 29°05' W 094°35'0 0.0
2018-Apr-18 03:29N 29°05' W 094°35'0 0.0
2018-Apr-18 02:59N 29°05' W 094°35'0 0.0
2018-Apr-18 02:20N 29°05' W 094°35'0 0.0
2018-Apr-18 00:29N 29°05' W 094°35'0 0.0
2018-Apr-17 23:59N 29°05' W 094°35'0 0.0
2018-Apr-17 22:05N 29°05' W 094°35'0 0.4
2018-Apr-17 21:52N 29°05' W 094°35'1 2.1
2018-Apr-17 21:28N 29°05' W 094°34'3 6.2
2018-Apr-17 21:00N 29°05' W 094°31'5 9.9
2018-Apr-17 20:30N 29°03' W 094°26'612.8
2018-Apr-17 20:00N 28°57' W 094°24'713.8
2018-Apr-17 19:30N 28°50' W 094°24'713.9
2018-Apr-17 19:00N 28°43' W 094°24'1214.0
2018-Apr-17 18:07N 28°31' W 094°24'514.1
2018-Apr-17 17:45N 28°25' W 094°24'614.1
2018-Apr-17 17:20N 28°19' W 094°25'  
2018-Apr-14 05:07N 26°06' W 079°27'411.3
2018-Apr-14 04:47N 26°09' W 079°28'310.8
2018-Apr-14 04:30N 26°12' W 079°28'  

Dump ship's entire track history